Time;durP1;ratioP1;P1;durP2;ratioP2;P2;SDS_P1;SDS_P2;PMS_P1;PMS_P2;Temp;Humidity;BMP_temperature;BMP_pressure;BME280_temperature;BME280_humidity;BME280_pressure;Samples;Min_cycle;Max_cycle;Signal;HPM_P1;HPM_P2
2022/04/12 00:01:37;;;;;;;10.50;6.30;;;;;;;2.63;64.30;101276.90;104657;1285;62026;-63
2022/04/12 00:04:07;;;;;;;9.60;5.80;;;;;;;2.59;64.60;101278.23;104690;1285;61333;-63
2022/04/12 00:06:36;;;;;;;6.10;4.70;;;;;;;2.56;64.60;101275.74;104736;1283;72423;-62
2022/04/12 00:09:05;;;;;;;11.20;7.00;;;;;;;2.51;65.18;101272.97;104704;1283;70801;-64
2022/04/12 00:11:34;;;;;;;14.00;7.90;;;;;;;2.47;65.12;101271.20;104707;1283;69016;-64
2022/04/12 00:14:03;;;;;;;11.90;7.10;;;;;;;2.44;65.30;101271.83;104744;1283;74498;-62
2022/04/12 00:16:32;;;;;;;8.40;4.80;;;;;;;2.41;65.18;101271.40;104728;1282;61208;-64
2022/04/12 00:19:09;;;;;;;12.40;7.00;;;;;;;2.40;65.67;101272.27;104766;1282;60145;-63
2022/04/12 00:21:38;;;;;;;10.40;5.80;;;;;;;2.38;65.68;101272.16;104690;1283;75539;-64
2022/04/12 00:24:08;;;;;;;9.30;6.60;;;;;;;2.38;66.00;101268.04;104691;1283;73197;-64
2022/04/12 00:26:36;;;;;;;11.30;7.30;;;;;;;2.35;65.93;101263.83;104689;1283;71132;-64
2022/04/12 00:29:05;;;;;;;9.30;6.40;;;;;;;2.33;66.16;101260.95;104613;1283;74337;-65
2022/04/12 00:31:34;;;;;;;13.70;7.00;;;;;;;2.31;66.01;101263.42;104641;1283;61785;-64
2022/04/12 00:34:03;;;;;;;11.70;7.40;;;;;;;2.26;66.11;101265.14;104616;1283;59708;-64
2022/04/12 00:36:32;;;;;;;10.40;6.10;;;;;;;2.16;66.15;101265.73;104716;1285;72310;-66
2022/04/12 00:39:01;;;;;;;11.80;6.40;;;;;;;2.02;66.60;101267.52;104714;1282;70778;-66
2022/04/12 00:41:35;;;;;;;12.50;6.70;;;;;;;1.85;67.09;101269.19;104688;1286;70125;-64
2022/04/12 00:44:05;;;;;;;15.20;7.70;;;;;;;1.72;67.33;101264.56;104740;1282;72194;-66
2022/04/12 00:46:34;;;;;;;10.20;6.60;;;;;;;1.67;68.15;101264.21;104732;1283;61798;-67
2022/04/12 00:49:03;;;;;;;11.30;6.80;;;;;;;1.61;68.18;101267.28;104781;1283;61881;-65
2022/04/12 00:51:31;;;;;;;14.90;7.50;;;;;;;1.62;68.60;101263.46;104739;1283;76115;-63
2022/04/12 00:54:01;;;;;;;16.00;7.60;;;;;;;1.69;68.87;101268.62;104728;1284;73088;-65
2022/04/12 00:56:30;;;;;;;12.40;7.60;;;;;;;1.76;68.86;101270.48;104708;1282;71308;-67
2022/04/12 00:59:02;;;;;;;14.80;7.20;;;;;;;1.83;68.84;101268.39;104670;1282;74245;-64
2022/04/12 01:01:31;;;;;;;9.50;6.20;;;;;;;1.88;68.60;101270.84;104645;1285;59442;-65
2022/04/12 01:04:00;;;;;;;7.20;4.40;;;;;;;1.92;68.43;101270.03;104685;1282;59810;-65
2022/04/12 01:06:30;;;;;;;13.30;7.50;;;;;;;1.93;68.25;101270.87;104663;1282;71942;-66
2022/04/12 01:08:59;;;;;;;11.50;7.40;;;;;;;1.92;68.33;101264.71;104707;1283;70908;-66
2022/04/12 01:11:28;;;;;;;11.10;6.20;;;;;;;1.94;68.80;101263.63;104673;1282;69886;-65
2022/04/12 01:13:57;;;;;;;9.30;5.30;;;;;;;1.97;68.73;101260.79;104624;1282;73150;-65
2022/04/12 01:16:26;;;;;;;9.50;5.80;;;;;;;2.00;68.50;101258.82;104680;1282;61177;-67
2022/04/12 01:18:55;;;;;;;8.60;5.40;;;;;;;2.03;68.57;101254.44;104694;1282;59809;-65
2022/04/12 01:21:29;;;;;;;13.20;8.10;;;;;;;2.07;68.52;101255.52;104732;1283;70963;-65
2022/04/12 01:24:00;;;;;;;9.40;5.70;;;;;;;2.11;68.52;101259.88;104641;1285;70576;-66
2022/04/12 01:26:29;;;;;;;13.70;8.60;;;;;;;2.15;68.05;101256.84;104792;1283;69955;-67
2022/04/12 01:28:59;;;;;;;11.80;7.60;;;;;;;2.16;67.95;101257.86;104741;1283;73081;-64
2022/04/12 01:31:28;;;;;;;12.70;7.70;;;;;;;2.17;68.03;101258.17;104738;1283;62365;-67
2022/04/12 01:33:57;;;;;;;12.50;7.00;;;;;;;2.18;68.01;101256.94;104788;1282;61320;-62
2022/04/12 01:36:26;;;;;;;10.30;6.70;;;;;;;2.20;67.88;101256.71;104788;1282;73740;-66
2022/04/12 01:38:54;;;;;;;11.50;7.40;;;;;;;2.21;67.81;101254.80;104699;1285;72019;-61
2022/04/12 01:41:24;;;;;;;9.00;5.20;;;;;;;2.16;67.77;101254.23;104749;1284;70258;-63
2022/04/12 01:43:52;;;;;;;14.10;6.80;;;;;;;2.11;68.09;101260.05;104685;1284;75283;-63
2022/04/12 01:46:21;;;;;;;14.00;6.70;;;;;;;2.08;68.19;101257.22;104666;1282;62357;-63
2022/04/12 01:48:50;;;;;;;10.80;7.50;;;;;;;2.04;68.46;101259.55;104701;1283;61363;-68
2022/04/12 01:51:19;;;;;;;11.30;7.80;;;;;;;1.99;68.38;101257.98;104677;1283;75416;-64
2022/04/12 01:53:48;;;;;;;11.60;6.50;;;;;;;1.99;68.33;101254.58;104568;1285;72417;-65
2022/04/12 01:56:17;;;;;;;11.70;7.00;;;;;;;2.00;68.88;101251.97;104560;1283;68388;-65
2022/04/12 01:58:46;;;;;;;9.50;6.50;;;;;;;2.02;68.80;101254.45;104579;1282;72562;-64
2022/04/12 02:01:15;;;;;;;10.20;6.90;;;;;;;1.99;68.56;101252.84;104537;1283;58985;-65
2022/04/12 02:03:46;;;;;;;12.20;6.50;;;;;;;1.96;68.58;101253.29;104610;1282;59731;-68
2022/04/12 02:06:15;;;;;;;9.20;5.40;;;;;;;1.93;68.67;101253.89;104558;1282;74839;-68
2022/04/12 02:08:44;;;;;;;10.50;6.50;;;;;;;1.91;68.89;101255.13;104545;1283;71506;-63
2022/04/12 02:11:13;;;;;;;11.90;7.50;;;;;;;1.90;69.20;101258.09;104489;1285;68425;-63
2022/04/12 02:13:42;;;;;;;11.90;7.20;;;;;;;1.86;68.97;101256.61;104608;1282;74163;-64
2022/04/12 02:16:11;;;;;;;10.70;6.90;;;;;;;1.82;69.45;101261.73;104544;1283;59730;-64
2022/04/12 02:18:41;;;;;;;7.80;5.10;;;;;;;1.81;68.89;101264.14;104574;1283;60006;-65
2022/04/12 02:21:09;;;;;;;12.70;6.90;;;;;;;1.82;69.30;101264.46;104615;1282;74996;-64
2022/04/12 02:23:39;;;;;;;13.40;7.00;;;;;;;1.84;69.34;101268.71;104608;1282;71856;-66
2022/04/12 02:26:08;;;;;;;10.40;6.90;;;;;;;1.84;69.14;101270.08;104611;1283;69569;-65
2022/04/12 02:28:36;;;;;;;15.60;7.80;;;;;;;1.82;69.01;101267.72;104564;1282;74369;-66
2022/04/12 02:31:05;;;;;;;11.30;6.60;;;;;;;1.80;69.32;101265.36;104590;1283;61986;-67
2022/04/12 02:33:35;;;;;;;11.40;6.80;;;;;;;1.81;69.30;101265.85;104596;1283;61060;-63
2022/04/12 02:36:05;;;;;;;13.90;7.50;;;;;;;1.79;69.32;101266.59;104503;1283;75599;-65
2022/04/12 02:38:34;;;;;;;14.50;7.90;;;;;;;1.76;69.27;101265.15;104531;1283;69891;-65
2022/04/12 02:41:03;;;;;;;17.40;7.40;;;;;;;1.72;69.32;101264.23;104494;1283;70036;-65
2022/04/12 02:43:32;;;;;;;13.50;6.50;;;;;;;1.70;69.30;101263.94;104510;1283;72909;-67
2022/04/12 02:46:02;;;;;;;14.50;7.50;;;;;;;1.70;69.65;101264.80;104392;1285;61991;-67
2022/04/12 02:48:31;;;;;;;10.30;6.30;;;;;;;1.68;69.69;101262.27;104517;1283;61185;-70
2022/04/12 02:51:00;;;;;;;15.60;7.70;;;;;;;1.65;69.73;101257.55;104583;1283;75679;-67
2022/04/12 02:53:29;;;;;;;12.80;7.40;;;;;;;1.63;69.94;101260.53;104506;1283;72649;-65
2022/04/12 02:55:58;;;;;;;12.80;6.90;;;;;;;1.59;70.05;101257.20;104545;1283;70424;-66
2022/04/12 02:58:27;;;;;;;15.00;9.10;;;;;;;1.60;70.12;101255.98;104502;1283;72697;-67
2022/04/12 03:00:56;;;;;;;12.50;7.40;;;;;;;1.57;70.47;101256.89;104551;1283;60048;-66
2022/04/12 03:03:25;;;;;;;13.70;7.50;;;;;;;1.56;70.25;101258.99;104401;1286;59790;-66
2022/04/12 03:05:55;;;;;;;9.20;5.10;;;;;;;1.54;70.37;101257.67;104545;1285;72238;-66
2022/04/12 03:08:24;;;;;;;14.40;7.30;;;;;;;1.56;70.39;101264.65;104654;1283;71990;-66
2022/04/12 03:10:53;;;;;;;17.00;8.80;;;;;;;1.56;70.30;101265.16;104651;1283;69643;-65
2022/04/12 03:13:22;;;;;;;12.90;7.40;;;;;;;1.56;70.34;101269.12;104612;1283;74021;-67
2022/04/12 03:15:51;;;;;;;14.00;7.90;;;;;;;1.53;70.29;101269.54;104670;1283;60811;-68
2022/04/12 03:18:20;;;;;;;14.70;7.80;;;;;;;1.50;70.56;101271.17;104596;1283;59629;-68
2022/04/12 03:20:51;;;;;;;12.50;6.90;;;;;;;1.47;70.87;101271.92;104681;1283;72677;-69
2022/04/12 03:23:20;;;;;;;16.00;7.80;;;;;;;1.49;70.90;101273.59;104718;1283;70055;-65
2022/04/12 03:25:52;;;;;;;14.20;7.40;;;;;;;1.47;70.59;101266.08;104651;1285;69035;-64
2022/04/12 03:28:21;;;;;;;14.00;6.90;;;;;;;1.47;70.84;101271.92;104637;1283;72920;-65
2022/04/12 03:30:50;;;;;;;17.50;7.80;;;;;;;1.47;70.93;101271.23;104606;1283;59929;-68
2022/04/12 03:33:19;;;;;;;14.70;8.30;;;;;;;1.48;71.18;101274.13;104691;1282;59147;-68
2022/04/12 03:35:49;;;;;;;10.50;6.40;;;;;;;1.50;71.19;101274.23;104320;1285;74136;-67
2022/04/12 03:38:18;;;;;;;17.60;8.40;;;;;;;1.50;71.10;101270.31;104690;1283;71909;-67
2022/04/12 03:40:47;;;;;;;12.50;7.60;;;;;;;1.51;71.08;101273.54;104634;1283;69487;-68
2022/04/12 03:43:16;;;;;;;11.30;6.80;;;;;;;1.54;71.13;101272.61;104678;1283;73729;-68
2022/04/12 03:45:45;;;;;;;14.10;7.30;;;;;;;1.58;71.21;101273.17;104529;1285;62367;-68
2022/04/12 03:48:14;;;;;;;14.80;8.10;;;;;;;1.59;71.23;101275.73;104541;1285;61343;-68
2022/04/12 03:50:44;;;;;;;12.10;6.50;;;;;;;1.60;71.31;101279.48;104523;1285;74187;-68
2022/04/12 03:53:13;;;;;;;13.80;7.00;;;;;;;1.60;71.30;101278.46;104661;1285;72163;-70
2022/04/12 03:55:46;;;;;;;16.10;8.10;;;;;;;1.61;71.28;101280.84;104553;1286;70687;-69
2022/04/12 03:58:19;;;;;;;13.00;8.50;;;;;;;1.63;71.62;101285.59;104710;1286;72669;-72
2022/04/12 04:00:53;;;;;;;11.00;6.80;;;;;;;1.66;71.33;101288.10;104698;1285;59738;-70
2022/04/12 04:03:22;;;;;;;10.20;6.50;;;;;;;1.67;71.44;101290.47;104520;1285;61495;-67
2022/04/12 04:05:51;;;;;;;13.40;7.80;;;;;;;1.71;71.54;101293.81;104604;1285;75010;-68
2022/04/12 04:08:20;;;;;;;14.00;7.80;;;;;;;1.76;71.29;101297.61;104432;1285;72979;-70
2022/04/12 04:10:50;;;;;;;15.60;7.20;;;;;;;1.79;71.20;101299.40;104512;1284;71332;-69
2022/04/12 04:13:21;;;;;;;10.60;7.20;;;;;;;1.83;71.20;101300.52;104451;1285;72207;-64
2022/04/12 04:15:51;;;;;;;13.90;7.90;;;;;;;1.88;71.27;101301.75;104545;1285;60912;-64
2022/04/12 04:18:21;;;;;;;15.30;8.20;;;;;;;1.95;71.03;101299.86;104600;1285;59613;-64
2022/04/12 04:20:50;;;;;;;13.50;7.50;;;;;;;1.98;70.88;101303.38;104614;1284;73859;-66
2022/04/12 04:23:18;;;;;;;14.00;7.20;;;;;;;2.02;70.76;101301.04;104675;1285;73252;-70
2022/04/12 04:25:48;;;;;;;12.50;7.60;;;;;;;2.06;70.51;101302.29;104788;1285;68233;-76
2022/04/12 04:28:21;;;;;;;12.20;7.50;;;;;;;2.16;70.44;101303.06;104734;1285;71498;-73
2022/04/12 04:30:50;;;;;;;10.70;7.70;;;;;;;2.21;70.30;101303.08;104393;1287;59666;-74
2022/04/12 04:33:20;;;;;;;13.80;8.10;;;;;;;2.25;70.13;101298.31;104594;1285;61514;-73
2022/04/12 04:35:51;;;;;;;15.70;8.20;;;;;;;2.31;69.83;101294.37;104921;1285;73367;-73
2022/04/12 04:38:19;;;;;;;11.90;7.50;;;;;;;2.39;69.71;101299.83;104541;1283;72522;-73
2022/04/12 04:40:49;;;;;;;9.70;6.40;;;;;;;2.49;69.44;101306.23;104957;1283;71625;-73
2022/04/12 04:43:18;;;;;;;10.70;7.40;;;;;;;2.53;69.28;101308.69;104902;1283;73170;-72
2022/04/12 04:45:47;;;;;;;12.30;7.60;;;;;;;2.59;68.92;101311.44;104653;1285;59059;-76
2022/04/12 04:48:16;;;;;;;10.40;6.60;;;;;;;2.66;68.80;101315.88;104610;1285;59133;-70
2022/04/12 04:50:45;;;;;;;12.50;6.80;;;;;;;2.75;68.59;101320.58;104525;1285;73078;-72
2022/04/12 04:53:14;;;;;;;9.80;6.50;;;;;;;2.83;68.21;101322.75;104585;1283;70232;-77
2022/04/12 04:55:43;;;;;;;14.20;8.10;;;;;;;2.89;68.16;101317.22;104551;1284;70165;-71
2022/04/12 04:58:12;;;;;;;10.00;5.80;;;;;;;2.97;68.06;101325.95;104695;1283;72241;-71
2022/04/12 05:00:43;;;;;;;9.40;6.10;;;;;;;3.03;67.78;101322.14;104782;1283;59945;-72
2022/04/12 05:03:12;;;;;;;12.20;7.10;;;;;;;3.10;67.56;101324.48;104849;1283;58979;-75
2022/04/12 05:05:41;;;;;;;11.70;7.20;;;;;;;3.17;67.70;101329.42;104894;1283;72299;-71
2022/04/12 05:08:10;;;;;;;12.50;8.40;;;;;;;3.24;67.28;101327.14;104787;1285;72856;-72
2022/04/12 05:10:38;;;;;;;16.60;8.40;;;;;;;3.30;67.39;101324.89;104714;1283;70667;-73
2022/04/12 05:13:07;;;;;;;10.00;5.60;;;;;;;3.37;67.14;101329.83;104631;1283;72132;-72
2022/04/12 05:15:36;;;;;;;11.80;7.00;;;;;;;3.51;66.78;101331.79;104685;1283;60764;-75
2022/04/12 05:18:06;;;;;;;14.10;7.90;;;;;;;3.60;66.53;101328.23;104655;1283;60300;-73
2022/04/12 05:20:35;;;;;;;12.80;7.20;;;;;;;3.66;66.10;101330.77;104579;1283;74707;-76
2022/04/12 05:23:04;;;;;;;10.80;6.20;;;;;;;3.66;66.45;101331.60;104692;1285;72741;-74
2022/04/12 05:25:33;;;;;;;13.60;8.40;;;;;;;3.78;66.25;101333.80;104681;1285;69125;-73
2022/04/12 05:28:02;;;;;;;13.00;8.70;;;;;;;3.84;66.08;101337.90;104778;1283;72669;-73
2022/04/12 05:30:31;;;;;;;9.80;5.80;;;;;;;3.91;65.91;101338.88;104709;1283;59685;-74
2022/04/12 05:33:00;;;;;;;11.20;8.00;;;;;;;3.93;65.54;101334.46;104691;1283;59960;-74
2022/04/12 05:35:29;;;;;;;13.70;8.60;;;;;;;4.02;65.83;101339.51;104581;1285;73253;-73
2022/04/12 05:37:59;;;;;;;10.90;6.80;;;;;;;4.14;65.59;101349.60;104602;1283;73158;-72
2022/04/12 05:40:46;;;;;;;13.70;7.70;;;;;;;4.20;65.50;101345.42;104580;1283;71684;-75
2022/04/12 05:43:19;;;;;;;10.30;7.00;;;;;;;4.31;65.18;101344.88;104476;1283;75255;-72
2022/04/12 05:45:48;;;;;;;11.10;7.10;;;;;;;4.41;64.55;101348.45;104880;1285;59687;-72
2022/04/12 05:48:17;;;;;;;10.70;7.20;;;;;;;4.42;64.16;101340.83;104504;1283;59500;-72
2022/04/12 05:50:46;;;;;;;10.90;7.40;;;;;;;4.52;63.87;101342.36;104625;1285;72983;-72
2022/04/12 05:53:15;;;;;;;10.70;6.90;;;;;;;4.57;63.64;101338.20;104570;1283;70513;-71
2022/04/12 05:55:44;;;;;;;12.70;7.70;;;;;;;4.64;63.66;101342.77;104734;1285;69860;-72
2022/04/12 05:58:13;;;;;;;13.20;7.60;;;;;;;4.77;63.27;101340.91;104806;1283;72897;-73
2022/04/12 06:00:42;;;;;;;10.80;7.10;;;;;;;4.82;62.69;101333.80;104580;1285;59641;-74
2022/04/12 06:03:11;;;;;;;16.30;9.10;;;;;;;4.91;62.37;101327.59;104604;1283;62451;-73
2022/04/12 06:05:41;;;;;;;11.80;8.00;;;;;;;4.96;61.91;101332.73;104443;1283;75089;-70
2022/04/12 06:08:10;;;;;;;13.50;7.40;;;;;;;4.99;62.46;101331.27;104343;1285;72746;-72
2022/04/12 06:10:38;;;;;;;11.90;7.50;;;;;;;5.15;61.93;101336.16;104338;1285;70734;-72
2022/04/12 06:13:08;;;;;;;12.00;6.90;;;;;;;5.21;61.17;101342.81;103980;1285;559747;-72
2022/04/12 06:15:37;;;;;;;12.10;6.90;;;;;;;5.25;61.18;101335.76;104598;1285;61809;-72
2022/04/12 06:18:08;;;;;;;12.60;7.30;;;;;;;5.34;60.90;101337.45;104646;1283;61045;-73
2022/04/12 06:20:37;;;;;;;10.70;6.80;;;;;;;5.39;60.69;101334.84;104589;1283;74474;-73
2022/04/12 06:23:06;;;;;;;10.60;6.60;;;;;;;5.43;60.71;101338.61;104582;1283;70804;-72
2022/04/12 06:25:35;;;;;;;9.20;6.00;;;;;;;5.54;59.88;101331.41;104638;1283;70754;-73
2022/04/12 06:28:04;;;;;;;10.20;6.70;;;;;;;5.66;59.89;101345.30;104362;1285;74881;-73
2022/04/12 06:30:34;;;;;;;11.40;6.80;;;;;;;5.73;59.27;101342.92;104484;1283;59797;-72
2022/04/12 06:33:02;;;;;;;9.70;6.60;;;;;;;5.85;59.11;101342.94;104528;1285;59537;-73
2022/04/12 06:35:31;;;;;;;11.30;6.70;;;;;;;5.90;59.06;101335.81;104648;1283;75156;-73
2022/04/12 06:38:03;;;;;;;10.60;6.80;;;;;;;5.98;58.60;101347.77;104882;1283;70788;-73
2022/04/12 06:40:32;;;;;;;9.90;5.50;;;;;;;5.98;58.50;101340.31;104655;1283;69959;-73
2022/04/12 06:43:02;;;;;;;10.60;7.10;;;;;;;6.03;58.30;101345.83;104563;1285;73877;-74
2022/04/12 06:45:31;;;;;;;10.30;5.20;;;;;;;6.07;58.01;101340.29;104561;1286;59702;-73
2022/04/12 06:48:00;;;;;;;8.60;5.70;;;;;;;6.16;57.42;101342.52;104554;1283;59996;-73
2022/04/12 06:50:29;;;;;;;11.10;7.40;;;;;;;6.24;56.99;101348.02;104613;1284;72206;-73
2022/04/12 06:52:59;;;;;;;8.80;5.70;;;;;;;6.22;56.98;101346.21;104731;1283;69155;-73
2022/04/12 06:55:28;;;;;;;10.20;7.40;;;;;;;6.30;56.99;101353.27;104596;1285;68435;-72
2022/04/12 06:57:57;;;;;;;11.70;6.80;;;;;;;6.37;56.67;101354.69;104670;1285;73411;-76
2022/04/12 07:00:26;;;;;;;11.10;6.90;;;;;;;6.43;56.68;101355.15;104627;1285;59933;-74
2022/04/12 07:02:55;;;;;;;11.80;6.70;;;;;;;6.52;56.76;101336.91;104870;1283;59738;-72
2022/04/12 07:05:25;;;;;;;10.80;6.50;;;;;;;6.68;56.60;101343.60;104849;1283;72798;-75
2022/04/12 07:07:54;;;;;;;9.90;5.90;;;;;;;6.74;55.64;101347.16;104618;1285;71485;-76
2022/04/12 07:10:24;;;;;;;7.00;4.60;;;;;;;6.78;55.57;101335.53;104603;1283;70318;-74
2022/04/12 07:12:53;;;;;;;15.00;6.80;;;;;;;6.85;55.82;101335.89;104574;1285;75182;-74
2022/04/12 07:15:23;;;;;;;12.90;6.70;;;;;;;7.03;55.48;101332.46;104676;1283;60491;-75
2022/04/12 07:17:52;;;;;;;12.10;5.60;;;;;;;7.15;55.14;101337.56;104717;1282;60471;-72
2022/04/12 07:20:21;;;;;;;9.70;6.00;;;;;;;7.22;54.85;101333.27;104615;1285;73232;-73
2022/04/12 07:22:50;;;;;;;12.70;6.50;;;;;;;7.36;54.43;101333.98;104674;1283;73031;-72
2022/04/12 07:25:20;;;;;;;8.80;5.80;;;;;;;7.51;53.92;101330.13;104713;1283;71318;-74
2022/04/12 07:27:49;;;;;;;9.00;5.60;;;;;;;7.61;52.92;101331.34;104519;1285;73987;-74
2022/04/12 07:30:18;;;;;;;7.90;5.00;;;;;;;7.65;51.72;101330.63;104547;1283;60019;-72
2022/04/12 07:33:06;;;;;;;11.20;5.60;;;;;;;7.55;52.00;101334.59;104408;1285;61570;-72
2022/04/12 07:35:35;;;;;;;10.40;5.30;;;;;;;7.60;51.82;101335.04;104529;1283;74898;-74
2022/04/12 07:38:05;;;;;;;8.60;4.80;;;;;;;7.64;51.10;101338.98;104381;1285;71460;-76
2022/04/12 07:40:34;;;;;;;8.20;5.10;;;;;;;7.64;50.94;101343.87;104598;1283;69926;-72
2022/04/12 07:43:03;;;;;;;9.00;5.50;;;;;;;7.71;51.54;101329.45;104522;1283;74220;-72
2022/04/12 07:45:32;;;;;;;6.50;4.00;;;;;;;7.86;50.56;101346.20;104502;1283;59754;-73
2022/04/12 07:48:00;;;;;;;7.10;4.50;;;;;;;7.87;50.03;101335.89;104463;1284;61413;-73
2022/04/12 07:50:29;;;;;;;8.00;4.80;;;;;;;7.93;50.60;101337.71;104266;1285;72997;-73
2022/04/12 07:52:59;;;;;;;8.20;4.50;;;;;;;8.12;50.26;101334.95;104664;1283;71745;-73
2022/04/12 07:55:28;;;;;;;7.00;4.30;;;;;;;8.25;49.49;101344.91;104697;1283;69725;-73
2022/04/12 07:57:57;;;;;;;7.20;3.90;;;;;;;8.31;48.39;101355.33;104761;1283;73353;-73
2022/04/12 08:00:26;;;;;;;7.60;4.20;;;;;;;8.16;48.03;101338.42;104673;1284;62096;-75
2022/04/12 08:02:55;;;;;;;7.80;3.50;;;;;;;8.20;48.66;101346.71;104644;1285;59992;-74
2022/04/12 08:05:24;;;;;;;5.10;3.40;;;;;;;8.37;46.34;101355.75;104677;1282;74829;-73
2022/04/12 08:07:53;;;;;;;7.40;4.70;;;;;;;8.30;46.62;101348.77;104611;1283;70429;-74
2022/04/12 08:10:23;;;;;;;6.70;4.40;;;;;;;8.31;47.22;101334.85;104636;1285;68729;-75
2022/04/12 08:12:53;;;;;;;7.10;4.10;;;;;;;8.53;47.63;101336.81;104693;1283;72183;-73
2022/04/12 08:15:23;;;;;;;7.40;3.80;;;;;;;8.56;46.27;101333.56;104649;1283;59674;-74
2022/04/12 08:17:52;;;;;;;7.00;4.00;;;;;;;8.69;46.59;101332.12;104618;1283;62985;-74
2022/04/12 08:20:20;;;;;;;6.40;4.00;;;;;;;8.71;46.19;101332.55;104562;1283;74457;-74
2022/04/12 08:22:52;;;;;;;7.80;4.50;;;;;;;8.50;46.79;101330.02;104578;1283;72872;-73
2022/04/12 08:25:21;;;;;;;8.90;4.50;;;;;;;8.61;47.28;101328.61;104669;1283;71671;-73
2022/04/12 08:27:50;;;;;;;7.20;4.20;;;;;;;8.71;46.14;101333.76;104593;1285;74904;-72
2022/04/12 08:30:18;;;;;;;7.10;4.10;;;;;;;8.67;45.14;101338.52;104689;1282;60880;-73
2022/04/12 08:32:49;;;;;;;6.20;3.70;;;;;;;8.57;43.60;101340.42;104667;1280;59842;-74
2022/04/12 08:35:18;;;;;;;7.20;4.10;;;;;;;8.54;44.27;101327.58;104576;1285;74374;-73
2022/04/12 08:37:47;;;;;;;8.20;4.30;;;;;;;8.61;45.01;101326.69;104603;1285;70983;-74
2022/04/12 08:40:18;;;;;;;4.40;3.20;;;;;;;8.96;44.28;101332.23;104531;1285;68501;-75
2022/04/12 08:42:48;;;;;;;5.80;3.60;;;;;;;9.05;42.74;101338.67;104560;1283;72191;-74
2022/04/12 08:45:16;;;;;;;6.20;3.10;;;;;;;9.02;42.98;101323.37;104603;1283;61455;-73
2022/04/12 08:47:45;;;;;;;6.20;3.60;;;;;;;8.99;43.18;101327.35;104433;1285;59175;-74
2022/04/12 08:50:14;;;;;;;7.10;3.60;;;;;;;9.13;43.16;101319.41;104549;1283;72217;-73
2022/04/12 08:52:45;;;;;;;6.50;4.40;;;;;;;9.19;42.91;101330.58;104554;1283;70941;-73
2022/04/12 08:55:15;;;;;;;5.40;3.70;;;;;;;9.10;42.99;101319.10;104414;1285;71160;-73
2022/04/12 08:57:44;;;;;;;7.80;3.70;;;;;;;9.05;42.08;101326.13;104557;1283;75721;-73
2022/04/12 09:00:13;;;;;;;6.10;3.50;;;;;;;9.11;41.66;101316.77;104402;1285;60615;-72
2022/04/12 09:02:53;;;;;;;6.20;3.60;;;;;;;9.26;41.71;101319.04;104637;1283;60523;-72
2022/04/12 09:05:22;;;;;;;5.20;2.80;;;;;;;9.15;40.98;101316.40;104707;1283;72902;-74
2022/04/12 09:07:51;;;;;;;7.10;3.30;;;;;;;9.06;38.99;101320.38;104769;1283;70052;-75
2022/04/12 09:10:25;;;;;;;4.70;3.10;;;;;;;9.08;39.44;101319.59;104347;1286;68186;-74
2022/04/12 09:13:11;;;;;;;6.50;3.90;;;;;;;9.30;40.52;101314.46;104579;1282;74129;-74
2022/04/12 09:15:45;;;;;;;5.40;3.30;;;;;;;9.38;40.05;101311.75;104464;1283;61301;-75
2022/04/12 09:18:38;;;;;;;6.10;3.20;;;;;;;9.29;39.47;101312.61;104472;1285;60340;-73
2022/04/12 09:21:22;;;;;;;7.20;4.00;;;;;;;9.17;40.05;101303.77;104714;1283;73164;-73
2022/04/12 09:23:55;;;;;;;7.10;3.70;;;;;;;9.00;40.69;101309.44;104681;1283;69029;-73
2022/04/12 09:26:27;;;;;;;7.80;3.80;;;;;;;8.96;40.98;101313.95;104605;1285;70874;-73
2022/04/12 09:29:00;;;;;;;7.10;4.00;;;;;;;8.96;41.15;101320.23;104710;1283;74199;-73
2022/04/12 09:31:29;;;;;;;5.00;3.20;;;;;;;9.20;41.29;101305.86;104656;1283;61925;-74
2022/04/12 09:33:58;;;;;;;6.10;3.70;;;;;;;9.50;40.18;101301.47;104596;1284;60349;-73
2022/04/12 09:36:34;;;;;;;7.50;3.30;;;;;;;9.48;39.71;101289.42;104812;1283;73051;-77
2022/04/12 09:39:04;;;;;;;5.90;3.20;;;;;;;9.77;38.50;101295.91;104604;1285;70553;-74
2022/04/12 09:41:33;;;;;;;5.00;3.40;;;;;;;9.74;38.06;101297.45;104690;1285;69961;-72
2022/04/12 09:44:08;;;;;;;5.80;3.30;;;;;;;9.76;37.97;101302.58;104594;1285;73665;-73
2022/04/12 09:46:39;;;;;;;6.40;3.20;;;;;;;9.77;37.93;101295.54;104657;1285;60609;-75
2022/04/12 09:49:08;;;;;;;4.80;3.30;;;;;;;9.80;38.51;101291.55;104448;1285;61149;-74
2022/04/12 09:51:38;;;;;;;5.50;2.80;;;;;;;9.80;37.98;101293.28;104655;1285;73153;-75
2022/04/12 09:54:08;;;;;;;7.80;3.70;;;;;;;9.68;37.38;101293.49;104521;1285;72462;-73
2022/04/12 09:56:39;;;;;;;6.40;3.90;;;;;;;9.41;38.14;101305.16;104682;1285;70586;-74
2022/04/12 09:59:13;;;;;;;8.70;3.60;;;;;;;9.33;38.14;101298.69;104538;1285;72730;-74
2022/04/12 10:01:43;;;;;;;7.30;3.60;;;;;;;9.61;37.82;101283.60;104633;1285;59806;-73
2022/04/12 10:04:15;;;;;;;5.70;3.20;;;;;;;9.93;37.58;101282.21;104572;1285;59575;-74
2022/04/12 10:06:45;;;;;;;6.00;3.50;;;;;;;10.11;37.73;101290.19;104515;1284;72734;-76
2022/04/12 10:09:17;;;;;;;4.40;3.10;;;;;;;10.01;37.30;101293.95;104630;1285;71699;-74
2022/04/12 10:11:48;;;;;;;4.60;3.10;;;;;;;9.77;35.45;101295.73;104477;1285;68740;-73
2022/04/12 10:14:18;;;;;;;4.90;3.60;;;;;;;9.77;35.28;101285.97;104679;1285;72564;-73
2022/04/12 10:16:48;;;;;;;6.70;3.10;;;;;;;9.76;35.94;101289.36;104630;1285;59983;-74
2022/04/12 10:19:18;;;;;;;5.20;3.60;;;;;;;9.89;36.75;101292.77;104574;1285;62495;-74
2022/04/12 10:21:47;;;;;;;5.40;3.60;;;;;;;10.32;36.17;101275.69;104597;1285;75192;-73
2022/04/12 10:24:18;;;;;;;4.90;3.20;;;;;;;10.43;35.40;101284.77;104733;1283;73241;-74
2022/04/12 10:26:48;;;;;;;6.10;3.30;;;;;;;10.39;33.90;101292.35;104523;1286;68606;-71
2022/04/12 10:29:17;;;;;;;6.60;3.00;;;;;;;10.19;33.60;101274.39;104531;1286;72805;-71
2022/04/12 10:31:59;;;;;;;4.90;3.00;;;;;;;10.56;33.80;101277.13;104592;1285;59590;-73
2022/04/12 10:35:00;;;;;;;5.80;3.20;;;;;;;10.80;33.89;101275.22;104539;1285;59043;-72
2022/04/12 10:37:32;;;;;;;6.60;3.50;;;;;;;10.58;34.70;101294.23;104634;1285;73053;-75
2022/04/12 10:40:21;;;;;;;6.00;3.10;;;;;;;10.38;34.94;101287.86;104456;1285;71748;-74
2022/04/12 10:43:02;;;;;;;6.80;4.20;;;;;;;10.26;34.93;101290.50;104469;1284;71454;-72
2022/04/12 10:45:33;;;;;;;4.30;2.90;;;;;;;10.18;35.10;101296.02;104627;1285;72560;-73
2022/04/12 10:48:03;;;;;;;5.40;2.90;;;;;;;10.18;34.04;101292.02;104536;1285;60794;-75
2022/04/12 10:50:41;;;;;;;5.00;3.50;;;;;;;10.11;34.02;101293.65;104379;1285;62096;-75
2022/04/12 10:53:11;;;;;;;6.50;2.80;;;;;;;10.09;34.21;101296.20;104448;1285;72733;-73
2022/04/12 10:55:43;;;;;;;7.50;3.90;;;;;;;10.00;33.56;101296.39;104457;1285;72826;-75
2022/04/12 10:58:33;;;;;;;5.30;2.90;;;;;;;9.99;33.58;101296.34;104567;1283;71337;-72
2022/04/12 11:01:04;;;;;;;6.20;3.60;;;;;;;9.88;33.99;101280.42;104411;1284;72225;-74
2022/04/12 11:03:42;;;;;;;5.50;3.50;;;;;;;10.09;34.12;101277.94;104514;1285;60791;-74
2022/04/12 11:06:14;;;;;;;4.50;3.30;;;;;;;10.17;34.79;101285.30;104475;1283;60358;-73
2022/04/12 11:08:48;;;;;;;5.30;3.60;;;;;;;10.16;34.48;101297.17;104438;1285;73494;-73
2022/04/12 11:11:33;;;;;;;6.60;3.70;;;;;;;9.87;34.50;101301.42;104189;1286;69965;-73
2022/04/12 11:14:32;;;;;;;4.80;3.00;;;;;;;9.76;34.24;101297.71;104464;1285;68952;-73
2022/04/12 11:17:10;;;;;;;8.30;3.40;;;;;;;9.68;33.40;101303.89;104587;1285;73427;-72
2022/04/12 11:19:54;;;;;;;6.90;4.00;;;;;;;9.83;34.32;101300.06;104600;1285;61349;-73
2022/04/12 11:22:25;;;;;;;7.50;4.00;;;;;;;9.95;35.38;101292.55;104466;1285;59576;-77
2022/04/12 11:25:21;;;;;;;6.80;4.40;;;;;;;10.00;36.18;101290.86;104736;1284;73944;-75
2022/04/12 11:27:58;;;;;;;6.40;4.00;;;;;;;9.96;35.70;101303.42;104685;1285;70216;-74
2022/04/12 11:30:28;;;;;;;7.50;3.80;;;;;;;9.85;35.34;101300.45;104605;1285;68256;-72
2022/04/12 11:32:57;;;;;;;5.60;3.80;;;;;;;9.82;34.92;101299.79;104614;1285;75348;-75
2022/04/12 11:35:26;;;;;;;8.50;4.20;;;;;;;9.82;34.98;101287.13;104549;1282;59761;-74